sensor_id;sensor_type;location;lat;lon;timestamp;noise_LAeq;noise_LA_min;noise_LA_max;noise_LA01;noise_LA95
74470;Laerm;62918;55.706;37.816;2023-12-14T00:00:28;64.79;60.43;71.06;;
74470;Laerm;62918;55.706;37.816;2023-12-14T00:00:59;63.56;57.38;67.97;;
74470;Laerm;62918;55.706;37.816;2023-12-14T00:01:30;65.66;55.02;70.10;;
74470;Laerm;62918;55.706;37.816;2023-12-14T00:02:00;63.30;52.89;70.84;;
74470;Laerm;62918;55.706;37.816;2023-12-14T00:02:31;64.79;55.70;74.79;;
74470;Laerm;62918;55.706;37.816;2023-12-14T00:03:01;66.66;58.92;69.91;;
74470;Laerm;62918;55.706;37.816;2023-12-14T00:03:33;65.91;63.04;69.64;;
74470;Laerm;62918;55.706;37.816;2023-12-14T00:04:04;63.75;53.72;69.02;;
74470;Laerm;62918;55.706;37.816;2023-12-14T00:04:35;62.56;54.10;69.15;;
74470;Laerm;62918;55.706;37.816;2023-12-14T00:05:05;61.37;51.90;66.18;;
74470;Laerm;62918;55.706;37.816;2023-12-14T00:05:36;65.26;60.07;71.33;;
74470;Laerm;62918;55.706;37.816;2023-12-14T00:06:13;66.90;61.23;71.88;;
74470;Laerm;62918;55.706;37.816;2023-12-14T00:06:44;63.44;51.15;70.40;;
74470;Laerm;62918;55.706;37.816;2023-12-14T00:07:14;60.55;50.74;68.98;;
74470;Laerm;62918;55.706;37.816;2023-12-14T00:07:46;62.07;54.94;68.70;;
74470;Laerm;62918;55.706;37.816;2023-12-14T00:08:17;60.55;53.08;65.33;;
74470;Laerm;62918;55.706;37.816;2023-12-14T00:08:47;66.67;56.49;74.36;;
74470;Laerm;62918;55.706;37.816;2023-12-14T00:09:18;62.52;51.30;71.83;;
74470;Laerm;62918;55.706;37.816;2023-12-14T00:09:49;62.25;54.47;68.99;;
74470;Laerm;62918;55.706;37.816;2023-12-14T00:10:19;64.00;57.04;68.94;;
74470;Laerm;62918;55.706;37.816;2023-12-14T00:10:50;67.63;57.39;75.62;;
74470;Laerm;62918;55.706;37.816;2023-12-14T00:11:20;62.08;52.97;67.28;;
74470;Laerm;62918;55.706;37.816;2023-12-14T00:11:51;60.80;53.93;65.77;;
74470;Laerm;62918;55.706;37.816;2023-12-14T00:12:22;60.56;52.36;68.19;;
74470;Laerm;62918;55.706;37.816;2023-12-14T00:12:52;60.30;51.69;65.57;;
74470;Laerm;62918;55.706;37.816;2023-12-14T00:13:25;59.07;51.16;67.28;;
74470;Laerm;62918;55.706;37.816;2023-12-14T00:13:56;60.64;52.17;65.88;;
74470;Laerm;62918;55.706;37.816;2023-12-14T00:14:26;63.00;56.93;68.05;;
74470;Laerm;62918;55.706;37.816;2023-12-14T00:14:57;64.64;57.43;73.65;;
74470;Laerm;62918;55.706;37.816;2023-12-14T00:15:27;61.85;54.94;70.62;;
74470;Laerm;62918;55.706;37.816;2023-12-14T00:15:58;65.70;52.80;75.80;;
74470;Laerm;62918;55.706;37.816;2023-12-14T00:16:29;60.28;52.78;65.14;;
74470;Laerm;62918;55.706;37.816;2023-12-14T00:16:59;60.82;52.35;67.13;;
74470;Laerm;62918;55.706;37.816;2023-12-14T00:17:30;61.32;53.30;65.64;;
74470;Laerm;62918;55.706;37.816;2023-12-14T00:18:01;59.67;52.51;65.31;;
74470;Laerm;62918;55.706;37.816;2023-12-14T00:18:31;62.39;53.63;74.80;;
74470;Laerm;62918;55.706;37.816;2023-12-14T00:19:02;60.97;53.59;70.75;;
74470;Laerm;62918;55.706;37.816;2023-12-14T00:19:32;61.35;52.68;66.22;;
74470;Laerm;62918;55.706;37.816;2023-12-14T00:20:03;60.39;54.37;64.85;;
74470;Laerm;62918;55.706;37.816;2023-12-14T00:20:35;60.73;53.49;65.60;;
74470;Laerm;62918;55.706;37.816;2023-12-14T00:21:06;61.75;55.39;73.16;;
74470;Laerm;62918;55.706;37.816;2023-12-14T00:21:37;62.02;54.13;69.57;;
74470;Laerm;62918;55.706;37.816;2023-12-14T00:22:08;62.06;51.23;67.56;;
74470;Laerm;62918;55.706;37.816;2023-12-14T00:22:39;62.50;52.55;68.30;;
74470;Laerm;62918;55.706;37.816;2023-12-14T00:23:10;62.07;51.23;74.33;;
74470;Laerm;62918;55.706;37.816;2023-12-14T00:23:40;62.04;54.04;73.25;;
74470;Laerm;62918;55.706;37.816;2023-12-14T00:24:11;61.63;52.47;71.32;;
74470;Laerm;62918;55.706;37.816;2023-12-14T00:24:41;61.74;51.93;69.84;;
74470;Laerm;62918;55.706;37.816;2023-12-14T00:25:13;64.32;51.40;69.83;;
74470;Laerm;62918;55.706;37.816;2023-12-14T00:25:43;64.26;52.18;69.19;;
74470;Laerm;62918;55.706;37.816;2023-12-14T00:26:14;64.12;53.71;69.35;;
74470;Laerm;62918;55.706;37.816;2023-12-14T00:26:45;64.76;55.88;69.83;;
74470;Laerm;62918;55.706;37.816;2023-12-14T00:27:15;61.10;53.78;66.08;;
74470;Laerm;62918;55.706;37.816;2023-12-14T00:27:46;61.87;51.43;68.62;;
74470;Laerm;62918;55.706;37.816;2023-12-14T00:28:17;66.52;55.22;70.69;;
74470;Laerm;62918;55.706;37.816;2023-12-14T00:28:47;51.19;45.81;60.09;;
74470;Laerm;62918;55.706;37.816;2023-12-14T00:29:18;49.92;45.33;56.18;;
74470;Laerm;62918;55.706;37.816;2023-12-14T00:29:48;53.83;47.65;60.78;;
74470;Laerm;62918;55.706;37.816;2023-12-14T00:30:19;50.27;46.59;56.31;;
74470;Laerm;62918;55.706;37.816;2023-12-14T00:30:50;51.12;46.54;54.76;;
74470;Laerm;62918;55.706;37.816;2023-12-14T00:31:20;53.14;48.72;59.88;;
74470;Laerm;62918;55.706;37.816;2023-12-14T00:31:51;55.86;48.61;64.18;;
74470;Laerm;62918;55.706;37.816;2023-12-14T00:32:21;65.03;55.49;72.30;;
74470;Laerm;62918;55.706;37.816;2023-12-14T00:32:52;65.69;57.21;71.30;;
74470;Laerm;62918;55.706;37.816;2023-12-14T00:33:23;63.81;54.96;72.29;;
74470;Laerm;62918;55.706;37.816;2023-12-14T00:33:53;61.48;55.29;66.77;;
74470;Laerm;62918;55.706;37.816;2023-12-14T00:34:24;61.80;53.80;67.02;;
74470;Laerm;62918;55.706;37.816;2023-12-14T00:34:54;62.61;54.45;67.03;;
74470;Laerm;62918;55.706;37.816;2023-12-14T00:35:25;61.79;54.49;69.75;;
74470;Laerm;62918;55.706;37.816;2023-12-14T00:35:55;62.20;53.20;71.31;;
74470;Laerm;62918;55.706;37.816;2023-12-14T00:36:26;61.73;53.30;67.46;;
74470;Laerm;62918;55.706;37.816;2023-12-14T00:36:57;61.79;53.98;67.40;;
74470;Laerm;62918;55.706;37.816;2023-12-14T00:37:27;61.56;53.49;67.25;;
74470;Laerm;62918;55.706;37.816;2023-12-14T00:37:58;63.36;55.19;69.93;;
74470;Laerm;62918;55.706;37.816;2023-12-14T00:38:29;63.22;54.91;69.70;;
74470;Laerm;62918;55.706;37.816;2023-12-14T00:38:59;62.28;53.10;69.22;;
74470;Laerm;62918;55.706;37.816;2023-12-14T00:39:30;62.68;53.76;71.28;;
74470;Laerm;62918;55.706;37.816;2023-12-14T00:40:00;61.59;54.51;67.99;;
74470;Laerm;62918;55.706;37.816;2023-12-14T00:40:31;63.69;54.50;69.21;;
74470;Laerm;62918;55.706;37.816;2023-12-14T00:41:01;63.27;55.69;70.52;;
74470;Laerm;62918;55.706;37.816;2023-12-14T00:41:32;63.47;54.52;68.51;;
74470;Laerm;62918;55.706;37.816;2023-12-14T00:42:03;63.25;55.41;67.77;;
74470;Laerm;62918;55.706;37.816;2023-12-14T00:42:34;63.04;55.32;68.56;;
74470;Laerm;62918;55.706;37.816;2023-12-14T00:43:04;64.00;56.22;74.78;;
74470;Laerm;62918;55.706;37.816;2023-12-14T00:43:35;62.14;55.47;67.79;;
74470;Laerm;62918;55.706;37.816;2023-12-14T00:44:06;63.80;55.23;69.85;;
74470;Laerm;62918;55.706;37.816;2023-12-14T00:44:37;63.70;54.65;70.28;;
74470;Laerm;62918;55.706;37.816;2023-12-14T00:45:08;63.32;54.18;69.30;;
74470;Laerm;62918;55.706;37.816;2023-12-14T00:45:38;62.66;54.82;71.22;;
74470;Laerm;62918;55.706;37.816;2023-12-14T00:46:11;58.28;54.61;70.45;;
74470;Laerm;62918;55.706;37.816;2023-12-14T00:46:42;64.34;55.32;68.79;;
74470;Laerm;62918;55.706;37.816;2023-12-14T00:47:12;64.07;56.91;69.77;;
74470;Laerm;62918;55.706;37.816;2023-12-14T00:47:43;64.41;55.43;69.67;;
74470;Laerm;62918;55.706;37.816;2023-12-14T00:48:13;64.64;57.32;69.36;;
74470;Laerm;62918;55.706;37.816;2023-12-14T00:48:44;61.69;54.88;68.77;;
74470;Laerm;62918;55.706;37.816;2023-12-14T00:49:15;65.04;56.35;70.63;;
74470;Laerm;62918;55.706;37.816;2023-12-14T00:49:48;63.21;54.81;67.97;;
74470;Laerm;62918;55.706;37.816;2023-12-14T00:50:18;64.60;55.45;73.23;;
74470;Laerm;62918;55.706;37.816;2023-12-14T00:50:49;63.30;55.49;73.65;;
74470;Laerm;62918;55.706;37.816;2023-12-14T00:51:20;63.97;55.41;69.04;;
74470;Laerm;62918;55.706;37.816;2023-12-14T00:51:50;63.26;55.62;72.89;;
74470;Laerm;62918;55.706;37.816;2023-12-14T00:52:21;63.66;55.35;70.80;;
74470;Laerm;62918;55.706;37.816;2023-12-14T00:52:51;60.91;55.69;66.10;;
74470;Laerm;62918;55.706;37.816;2023-12-14T00:53:22;63.31;55.23;69.87;;
74470;Laerm;62918;55.706;37.816;2023-12-14T00:53:52;64.33;55.56;69.81;;
74470;Laerm;62918;55.706;37.816;2023-12-14T00:54:23;61.75;53.95;70.16;;
74470;Laerm;62918;55.706;37.816;2023-12-14T00:54:53;61.70;54.71;75.77;;
74470;Laerm;62918;55.706;37.816;2023-12-14T00:55:24;60.32;54.11;66.47;;
74470;Laerm;62918;55.706;37.816;2023-12-14T00:55:55;61.38;55.82;67.81;;
74470;Laerm;62918;55.706;37.816;2023-12-14T00:56:27;60.05;56.00;65.45;;
74470;Laerm;62918;55.706;37.816;2023-12-14T00:56:58;60.68;55.08;65.63;;
74470;Laerm;62918;55.706;37.816;2023-12-14T00:57:29;60.84;54.05;67.69;;
74470;Laerm;62918;55.706;37.816;2023-12-14T00:57:59;60.99;54.58;68.30;;
74470;Laerm;62918;55.706;37.816;2023-12-14T00:58:30;60.78;54.31;67.54;;
74470;Laerm;62918;55.706;37.816;2023-12-14T00:59:00;59.60;52.59;66.74;;
74470;Laerm;62918;55.706;37.816;2023-12-14T00:59:31;61.90;52.05;68.76;;
74470;Laerm;62918;55.706;37.816;2023-12-14T01:00:02;65.43;58.01;73.54;;
74470;Laerm;62918;55.706;37.816;2023-12-14T01:00:32;66.18;54.02;75.84;;
74470;Laerm;62918;55.706;37.816;2023-12-14T01:01:03;65.04;54.95;70.87;;
74470;Laerm;62918;55.706;37.816;2023-12-14T01:01:34;61.01;54.83;66.64;;
74470;Laerm;62918;55.706;37.816;2023-12-14T01:02:04;61.01;54.76;67.64;;
74470;Laerm;62918;55.706;37.816;2023-12-14T01:02:35;61.02;54.25;67.06;;
74470;Laerm;62918;55.706;37.816;2023-12-14T01:03:06;60.02;51.31;67.09;;
74470;Laerm;62918;55.706;37.816;2023-12-14T01:03:36;61.01;53.94;68.11;;
74470;Laerm;62918;55.706;37.816;2023-12-14T01:04:07;58.70;51.44;64.20;;
74470;Laerm;62918;55.706;37.816;2023-12-14T01:04:38;59.85;52.72;64.45;;
74470;Laerm;62918;55.706;37.816;2023-12-14T01:05:08;58.94;55.16;67.22;;
74470;Laerm;62918;55.706;37.816;2023-12-14T01:05:39;59.14;54.62;65.69;;
74470;Laerm;62918;55.706;37.816;2023-12-14T01:06:10;61.72;53.94;68.05;;
74470;Laerm;62918;55.706;37.816;2023-12-14T01:06:40;59.69;52.12;66.70;;
74470;Laerm;62918;55.706;37.816;2023-12-14T01:07:11;58.92;52.56;65.14;;
74470;Laerm;62918;55.706;37.816;2023-12-14T01:07:41;57.99;52.41;63.85;;
74470;Laerm;62918;55.706;37.816;2023-12-14T01:08:12;60.07;54.06;66.26;;
74470;Laerm;62918;55.706;37.816;2023-12-14T01:08:42;59.14;53.71;63.66;;
74470;Laerm;62918;55.706;37.816;2023-12-14T01:09:13;62.19;54.96;74.05;;
74470;Laerm;62918;55.706;37.816;2023-12-14T01:09:43;60.84;54.53;69.18;;
74470;Laerm;62918;55.706;37.816;2023-12-14T01:10:14;59.69;53.85;65.73;;
74470;Laerm;62918;55.706;37.816;2023-12-14T01:10:45;56.96;49.75;62.96;;
74470;Laerm;62918;55.706;37.816;2023-12-14T01:11:17;61.60;51.34;73.48;;
74470;Laerm;62918;55.706;37.816;2023-12-14T01:11:47;52.82;48.82;58.56;;
74470;Laerm;62918;55.706;37.816;2023-12-14T01:12:18;51.32;46.05;59.10;;
74470;Laerm;62918;55.706;37.816;2023-12-14T01:12:48;50.42;45.48;61.16;;
74470;Laerm;62918;55.706;37.816;2023-12-14T01:13:19;51.94;46.70;63.81;;
74470;Laerm;62918;55.706;37.816;2023-12-14T01:13:49;51.66;47.50;60.62;;
74470;Laerm;62918;55.706;37.816;2023-12-14T01:14:20;51.45;47.15;57.44;;
74470;Laerm;62918;55.706;37.816;2023-12-14T01:14:51;51.77;46.06;66.67;;
74470;Laerm;62918;55.706;37.816;2023-12-14T01:15:21;52.34;48.16;60.74;;
74470;Laerm;62918;55.706;37.816;2023-12-14T01:15:52;52.30;47.96;64.70;;
74470;Laerm;62918;55.706;37.816;2023-12-14T01:16:26;51.52;46.93;58.24;;
74470;Laerm;62918;55.706;37.816;2023-12-14T01:16:56;54.17;48.44;61.88;;
74470;Laerm;62918;55.706;37.816;2023-12-14T01:17:27;55.01;47.81;59.37;;
74470;Laerm;62918;55.706;37.816;2023-12-14T01:17:59;53.90;49.07;67.19;;
74470;Laerm;62918;55.706;37.816;2023-12-14T01:18:29;53.35;48.16;65.79;;
74470;Laerm;62918;55.706;37.816;2023-12-14T01:19:00;52.25;49.05;63.58;;
74470;Laerm;62918;55.706;37.816;2023-12-14T01:19:30;55.08;50.03;66.42;;
74470;Laerm;62918;55.706;37.816;2023-12-14T01:20:04;51.40;47.54;56.93;;
74470;Laerm;62918;55.706;37.816;2023-12-14T01:20:35;53.46;48.26;60.17;;
74470;Laerm;62918;55.706;37.816;2023-12-14T01:21:06;55.85;49.13;62.95;;
74470;Laerm;62918;55.706;37.816;2023-12-14T01:21:36;51.68;47.87;61.22;;
74470;Laerm;62918;55.706;37.816;2023-12-14T01:22:07;54.95;48.79;60.07;;
74470;Laerm;62918;55.706;37.816;2023-12-14T01:22:38;55.50;48.97;61.73;;
74470;Laerm;62918;55.706;37.816;2023-12-14T01:23:08;52.15;48.64;57.21;;
74470;Laerm;62918;55.706;37.816;2023-12-14T01:23:40;56.14;51.22;61.64;;
74470;Laerm;62918;55.706;37.816;2023-12-14T01:24:10;53.40;47.58;58.10;;
74470;Laerm;62918;55.706;37.816;2023-12-14T01:24:41;54.37;48.29;58.77;;
74470;Laerm;62918;55.706;37.816;2023-12-14T01:25:11;53.68;49.25;59.00;;
74470;Laerm;62918;55.706;37.816;2023-12-14T01:25:42;53.15;47.53;58.86;;
74470;Laerm;62918;55.706;37.816;2023-12-14T01:26:13;52.58;48.17;60.91;;
74470;Laerm;62918;55.706;37.816;2023-12-14T01:26:43;53.23;48.42;60.73;;
74470;Laerm;62918;55.706;37.816;2023-12-14T01:27:14;52.08;47.75;56.74;;
74470;Laerm;62918;55.706;37.816;2023-12-14T01:27:44;51.59;45.82;58.98;;
74470;Laerm;62918;55.706;37.816;2023-12-14T01:28:15;58.10;52.31;63.43;;
74470;Laerm;62918;55.706;37.816;2023-12-14T01:28:45;52.76;48.12;59.74;;
74470;Laerm;62918;55.706;37.816;2023-12-14T01:29:16;57.79;52.03;66.04;;
74470;Laerm;62918;55.706;37.816;2023-12-14T01:29:47;52.26;47.88;57.49;;
74470;Laerm;62918;55.706;37.816;2023-12-14T01:30:17;54.78;49.42;60.88;;
74470;Laerm;62918;55.706;37.816;2023-12-14T01:30:48;56.15;47.66;64.05;;
74470;Laerm;62918;55.706;37.816;2023-12-14T01:31:18;51.96;45.30;61.53;;
74470;Laerm;62918;55.706;37.816;2023-12-14T01:31:49;49.21;45.40;64.04;;
74470;Laerm;62918;55.706;37.816;2023-12-14T01:32:20;49.08;45.45;52.94;;
74470;Laerm;62918;55.706;37.816;2023-12-14T01:32:50;49.52;45.34;59.75;;
74470;Laerm;62918;55.706;37.816;2023-12-14T01:33:21;52.41;47.05;56.41;;
74470;Laerm;62918;55.706;37.816;2023-12-14T01:33:52;59.30;51.85;65.09;;
74470;Laerm;62918;55.706;37.816;2023-12-14T01:34:22;54.54;45.19;61.99;;
74470;Laerm;62918;55.706;37.816;2023-12-14T01:34:53;49.15;45.26;53.94;;
74470;Laerm;62918;55.706;37.816;2023-12-14T01:35:23;48.14;44.75;51.39;;
74470;Laerm;62918;55.706;37.816;2023-12-14T01:35:54;48.97;45.37;53.10;;
74470;Laerm;62918;55.706;37.816;2023-12-14T01:36:26;48.58;45.10;54.09;;
74470;Laerm;62918;55.706;37.816;2023-12-14T01:36:56;47.95;44.75;52.35;;
74470;Laerm;62918;55.706;37.816;2023-12-14T01:37:27;51.50;45.49;57.20;;
74470;Laerm;62918;55.706;37.816;2023-12-14T01:37:57;54.63;46.95;61.49;;
74470;Laerm;62918;55.706;37.816;2023-12-14T01:38:28;53.55;46.65;61.36;;
74470;Laerm;62918;55.706;37.816;2023-12-14T01:38:58;56.71;52.47;62.39;;
74470;Laerm;62918;55.706;37.816;2023-12-14T01:39:29;55.71;47.87;62.89;;
74470;Laerm;62918;55.706;37.816;2023-12-14T01:40:00;55.55;46.73;65.38;;
74470;Laerm;62918;55.706;37.816;2023-12-14T01:40:30;55.33;49.40;64.57;;
74470;Laerm;62918;55.706;37.816;2023-12-14T01:41:01;50.94;47.73;55.14;;
74470;Laerm;62918;55.706;37.816;2023-12-14T01:41:32;56.12;48.52;65.21;;
74470;Laerm;62918;55.706;37.816;2023-12-14T01:42:02;58.02;47.93;72.97;;
74470;Laerm;62918;55.706;37.816;2023-12-14T01:42:33;57.58;47.97;67.34;;
74470;Laerm;62918;55.706;37.816;2023-12-14T01:43:08;54.05;47.17;60.51;;
74470;Laerm;62918;55.706;37.816;2023-12-14T01:43:40;53.79;47.51;62.48;;
74470;Laerm;62918;55.706;37.816;2023-12-14T01:44:11;49.63;46.53;53.67;;
74470;Laerm;62918;55.706;37.816;2023-12-14T01:44:41;53.53;48.23;59.88;;
74470;Laerm;62918;55.706;37.816;2023-12-14T01:45:12;51.55;47.28;58.81;;
74470;Laerm;62918;55.706;37.816;2023-12-14T01:45:45;53.69;47.83;58.12;;
74470;Laerm;62918;55.706;37.816;2023-12-14T01:46:16;70.59;48.46;77.38;;
74470;Laerm;62918;55.706;37.816;2023-12-14T01:46:47;67.01;54.68;78.04;;
74470;Laerm;62918;55.706;37.816;2023-12-14T01:47:17;68.23;54.88;76.61;;
74470;Laerm;62918;55.706;37.816;2023-12-14T01:47:48;66.03;56.75;74.04;;
74470;Laerm;62918;55.706;37.816;2023-12-14T01:48:18;55.44;48.86;63.58;;
74470;Laerm;62918;55.706;37.816;2023-12-14T01:48:49;53.05;47.99;59.60;;
74470;Laerm;62918;55.706;37.816;2023-12-14T01:49:20;56.12;50.56;60.72;;
74470;Laerm;62918;55.706;37.816;2023-12-14T01:49:51;56.53;46.70;66.04;;
74470;Laerm;62918;55.706;37.816;2023-12-14T01:50:21;49.99;46.68;55.67;;
74470;Laerm;62918;55.706;37.816;2023-12-14T01:50:52;51.63;47.69;57.20;;
74470;Laerm;62918;55.706;37.816;2023-12-14T01:51:23;59.78;52.50;66.19;;
74470;Laerm;62918;55.706;37.816;2023-12-14T01:51:53;59.13;53.42;63.86;;
74470;Laerm;62918;55.706;37.816;2023-12-14T01:52:24;57.61;51.00;67.67;;
74470;Laerm;62918;55.706;37.816;2023-12-14T01:52:54;58.20;49.43;66.47;;
74470;Laerm;62918;55.706;37.816;2023-12-14T01:53:25;55.06;47.38;59.89;;
74470;Laerm;62918;55.706;37.816;2023-12-14T01:53:56;54.65;49.10;62.41;;
74470;Laerm;62918;55.706;37.816;2023-12-14T01:54:27;50.34;47.01;53.18;;
74470;Laerm;62918;55.706;37.816;2023-12-14T01:54:57;51.38;46.31;55.29;;
74470;Laerm;62918;55.706;37.816;2023-12-14T01:55:29;52.05;48.17;59.84;;
74470;Laerm;62918;55.706;37.816;2023-12-14T01:56:00;61.86;51.09;67.95;;
74470;Laerm;62918;55.706;37.816;2023-12-14T01:56:30;63.84;53.74;76.41;;
74470;Laerm;62918;55.706;37.816;2023-12-14T01:57:01;61.43;53.30;69.21;;
74470;Laerm;62918;55.706;37.816;2023-12-14T01:57:31;53.85;48.16;59.14;;
74470;Laerm;62918;55.706;37.816;2023-12-14T01:58:02;53.15;49.32;57.83;;
74470;Laerm;62918;55.706;37.816;2023-12-14T01:58:32;53.37;48.31;57.28;;
74470;Laerm;62918;55.706;37.816;2023-12-14T01:59:03;52.31;46.90;67.00;;
74470;Laerm;62918;55.706;37.816;2023-12-14T01:59:33;67.03;50.19;73.40;;
74470;Laerm;62918;55.706;37.816;2023-12-14T02:00:05;63.71;46.85;71.69;;
74470;Laerm;62918;55.706;37.816;2023-12-14T02:01:16;53.57;45.79;65.89;;
74470;Laerm;62918;55.706;37.816;2023-12-14T02:01:52;55.08;47.26;65.95;;
74470;Laerm;62918;55.706;37.816;2023-12-14T02:02:24;49.12;46.34;52.55;;
74470;Laerm;62918;55.706;37.816;2023-12-14T02:02:54;52.53;45.49;60.26;;
74470;Laerm;62918;55.706;37.816;2023-12-14T02:03:25;48.90;44.52;55.21;;
74470;Laerm;62918;55.706;37.816;2023-12-14T02:03:55;48.00;45.01;50.84;;
74470;Laerm;62918;55.706;37.816;2023-12-14T02:04:26;52.86;46.06;59.05;;
74470;Laerm;62918;55.706;37.816;2023-12-14T02:04:56;50.90;46.55;71.45;;
74470;Laerm;62918;55.706;37.816;2023-12-14T02:05:27;56.66;49.59;63.26;;
74470;Laerm;62918;55.706;37.816;2023-12-14T02:05:58;58.79;48.97;69.73;;
74470;Laerm;62918;55.706;37.816;2023-12-14T02:06:28;62.52;56.34;66.44;;
74470;Laerm;62918;55.706;37.816;2023-12-14T02:06:59;62.65;56.71;66.92;;
74470;Laerm;62918;55.706;37.816;2023-12-14T02:07:30;62.12;56.95;66.01;;
74470;Laerm;62918;55.706;37.816;2023-12-14T02:08:01;61.17;55.59;65.47;;
74470;Laerm;62918;55.706;37.816;2023-12-14T02:08:31;60.40;54.38;65.40;;
74470;Laerm;62918;55.706;37.816;2023-12-14T02:09:02;60.12;54.05;64.71;;
74470;Laerm;62918;55.706;37.816;2023-12-14T02:09:33;61.79;55.48;66.98;;
74470;Laerm;62918;55.706;37.816;2023-12-14T02:10:04;60.46;55.23;66.58;;
74470;Laerm;62918;55.706;37.816;2023-12-14T02:10:35;63.19;56.42;73.07;;
74470;Laerm;62918;55.706;37.816;2023-12-14T02:11:06;60.85;55.53;66.98;;
74470;Laerm;62918;55.706;37.816;2023-12-14T02:11:37;57.81;50.60;65.16;;
74470;Laerm;62918;55.706;37.816;2023-12-14T02:12:07;50.53;47.81;53.02;;
74470;Laerm;62918;55.706;37.816;2023-12-14T02:12:38;49.12;46.10;52.87;;
74470;Laerm;62918;55.706;37.816;2023-12-14T02:13:08;48.69;45.47;58.24;;
74470;Laerm;62918;55.706;37.816;2023-12-14T02:13:39;50.73;46.62;58.84;;
74470;Laerm;62918;55.706;37.816;2023-12-14T02:14:10;54.04;49.01;68.21;;
74470;Laerm;62918;55.706;37.816;2023-12-14T02:14:40;60.39;52.51;70.02;;
74470;Laerm;62918;55.706;37.816;2023-12-14T02:15:11;56.55;50.91;60.86;;
74470;Laerm;62918;55.706;37.816;2023-12-14T02:15:42;56.66;51.31;63.75;;
74470;Laerm;62918;55.706;37.816;2023-12-14T02:16:13;56.47;52.76;61.40;;
74470;Laerm;62918;55.706;37.816;2023-12-14T02:16:43;56.09;48.06;61.81;;
74470;Laerm;62918;55.706;37.816;2023-12-14T02:17:14;51.23;47.94;54.98;;
74470;Laerm;62918;55.706;37.816;2023-12-14T02:17:44;56.30;50.07;60.82;;
74470;Laerm;62918;55.706;37.816;2023-12-14T02:18:15;52.89;47.98;59.60;;
74470;Laerm;62918;55.706;37.816;2023-12-14T02:18:46;54.79;47.94;61.86;;
74470;Laerm;62918;55.706;37.816;2023-12-14T02:19:36;57.15;47.85;67.29;;
74470;Laerm;62918;55.706;37.816;2023-12-14T02:20:07;57.04;53.21;60.44;;
74470;Laerm;62918;55.706;37.816;2023-12-14T02:20:37;52.14;47.52;57.77;;
74470;Laerm;62918;55.706;37.816;2023-12-14T02:21:08;51.18;48.26;54.91;;
74470;Laerm;62918;55.706;37.816;2023-12-14T02:21:38;53.17;48.29;58.82;;
74470;Laerm;62918;55.706;37.816;2023-12-14T02:22:09;55.54;51.27;61.54;;
74470;Laerm;62918;55.706;37.816;2023-12-14T02:22:52;55.17;48.12;63.20;;
74470;Laerm;62918;55.706;37.816;2023-12-14T02:23:23;58.61;48.08;66.31;;
74470;Laerm;62918;55.706;37.816;2023-12-14T02:23:53;51.71;48.01;59.22;;
74470;Laerm;62918;55.706;37.816;2023-12-14T02:24:24;61.86;50.53;74.10;;
74470;Laerm;62918;55.706;37.816;2023-12-14T02:24:55;55.97;50.44;63.81;;
74470;Laerm;62918;55.706;37.816;2023-12-14T02:25:25;58.03;52.63;63.79;;
74470;Laerm;62918;55.706;37.816;2023-12-14T02:25:56;55.21;51.66;59.76;;
74470;Laerm;62918;55.706;37.816;2023-12-14T02:26:26;57.43;50.79;65.50;;
74470;Laerm;62918;55.706;37.816;2023-12-14T02:26:57;54.14;49.00;58.25;;
74470;Laerm;62918;55.706;37.816;2023-12-14T02:27:28;54.03;48.06;61.82;;
74470;Laerm;62918;55.706;37.816;2023-12-14T02:27:58;56.15;52.25;60.43;;
74470;Laerm;62918;55.706;37.816;2023-12-14T02:28:29;57.08;51.58;61.77;;
74470;Laerm;62918;55.706;37.816;2023-12-14T02:28:59;54.95;48.27;65.02;;
74470;Laerm;62918;55.706;37.816;2023-12-14T02:29:30;57.28;49.29;66.19;;
74470;Laerm;62918;55.706;37.816;2023-12-14T02:30:01;56.40;51.31;61.19;;
74470;Laerm;62918;55.706;37.816;2023-12-14T02:30:32;52.14;47.12;61.42;;
74470;Laerm;62918;55.706;37.816;2023-12-14T02:31:03;56.03;49.85;64.15;;
74470;Laerm;62918;55.706;37.816;2023-12-14T02:31:34;57.13;49.72;62.62;;
74470;Laerm;62918;55.706;37.816;2023-12-14T02:32:05;54.41;48.00;77.72;;
74470;Laerm;62918;55.706;37.816;2023-12-14T02:32:35;54.56;48.75;60.30;;
74470;Laerm;62918;55.706;37.816;2023-12-14T02:33:06;53.75;48.03;59.02;;
74470;Laerm;62918;55.706;37.816;2023-12-14T02:33:36;53.85;48.57;60.74;;
74470;Laerm;62918;55.706;37.816;2023-12-14T02:34:07;53.42;49.20;65.50;;
74470;Laerm;62918;55.706;37.816;2023-12-14T02:34:38;61.01;50.68;66.98;;
74470;Laerm;62918;55.706;37.816;2023-12-14T02:35:09;52.73;49.80;60.47;;
74470;Laerm;62918;55.706;37.816;2023-12-14T02:35:40;67.19;53.05;75.42;;
74470;Laerm;62918;55.706;37.816;2023-12-14T02:36:10;64.25;55.39;73.68;;
74470;Laerm;62918;55.706;37.816;2023-12-14T02:36:41;58.07;53.09;63.64;;
74470;Laerm;62918;55.706;37.816;2023-12-14T02:37:12;59.61;55.22;65.80;;
74470;Laerm;62918;55.706;37.816;2023-12-14T02:37:42;55.28;49.32;59.92;;
74470;Laerm;62918;55.706;37.816;2023-12-14T02:38:13;54.56;50.09;58.59;;
74470;Laerm;62918;55.706;37.816;2023-12-14T02:38:44;56.28;51.37;60.28;;
74470;Laerm;62918;55.706;37.816;2023-12-14T02:39:14;57.70;52.88;64.47;;
74470;Laerm;62918;55.706;37.816;2023-12-14T02:39:45;57.79;52.20;61.99;;
74470;Laerm;62918;55.706;37.816;2023-12-14T02:40:17;58.01;51.02;65.97;;
74470;Laerm;62918;55.706;37.816;2023-12-14T02:40:49;57.09;49.46;64.67;;
74470;Laerm;62918;55.706;37.816;2023-12-14T02:41:23;53.08;47.65;70.82;;
74470;Laerm;62918;55.706;37.816;2023-12-14T02:41:53;54.43;48.59;68.31;;
74470;Laerm;62918;55.706;37.816;2023-12-14T02:42:24;53.87;48.90;67.47;;
74470;Laerm;62918;55.706;37.816;2023-12-14T02:42:55;62.26;52.23;69.33;;
74470;Laerm;62918;55.706;37.816;2023-12-14T02:43:25;56.85;50.68;69.28;;
74470;Laerm;62918;55.706;37.816;2023-12-14T02:43:56;58.13;51.81;64.07;;
74470;Laerm;62918;55.706;37.816;2023-12-14T02:44:26;58.08;50.61;71.32;;
74470;Laerm;62918;55.706;37.816;2023-12-14T02:44:57;56.13;50.31;66.29;;
74470;Laerm;62918;55.706;37.816;2023-12-14T02:45:27;59.98;52.57;66.18;;
74470;Laerm;62918;55.706;37.816;2023-12-14T02:45:58;56.78;49.55;62.26;;
74470;Laerm;62918;55.706;37.816;2023-12-14T02:46:32;56.45;52.14;61.10;;
74470;Laerm;62918;55.706;37.816;2023-12-14T02:47:03;54.69;50.20;59.71;;
74470;Laerm;62918;55.706;37.816;2023-12-14T02:47:34;55.20;50.57;69.38;;
74470;Laerm;62918;55.706;37.816;2023-12-14T02:48:04;60.21;53.71;68.29;;
74470;Laerm;62918;55.706;37.816;2023-12-14T02:48:35;60.23;53.82;67.54;;
74470;Laerm;62918;55.706;37.816;2023-12-14T02:49:06;61.20;55.83;66.79;;
74470;Laerm;62918;55.706;37.816;2023-12-14T02:49:37;56.47;51.30;62.09;;
74470;Laerm;62918;55.706;37.816;2023-12-14T02:50:08;53.35;49.43;58.21;;
74470;Laerm;62918;55.706;37.816;2023-12-14T02:50:38;52.31;48.92;57.10;;
74470;Laerm;62918;55.706;37.816;2023-12-14T02:51:13;59.58;50.13;70.45;;